createdAt,value
2016-08-23T00:00:12.004Z,18.53
2016-08-23T00:01:11.293Z,18.52
2016-08-23T00:02:11.273Z,18.45
2016-08-23T00:03:11.249Z,18.41
2016-08-23T00:04:11.229Z,18.41
2016-08-23T00:05:11.213Z,18.35
2016-08-23T00:06:11.194Z,18.4
2016-08-23T00:07:11.182Z,18.45
2016-08-23T00:08:11.151Z,18.4
2016-08-23T00:09:11.125Z,18.35
2016-08-23T00:10:11.107Z,18.33
2016-08-23T00:11:11.083Z,18.34
2016-08-23T00:12:11.071Z,18.29
2016-08-23T00:13:11.048Z,18.26
2016-08-23T00:14:11.022Z,18.26
2016-08-23T00:15:10.999Z,18.2
2016-08-23T00:16:10.982Z,18.26
2016-08-23T00:17:10.962Z,18.28
2016-08-23T00:18:10.945Z,18.22
2016-08-23T00:19:10.921Z,18.25
2016-08-23T00:20:10.900Z,18.2
2016-08-23T00:21:10.887Z,18.25
2016-08-23T00:22:10.857Z,18.18
2016-08-23T00:23:10.842Z,18.19
2016-08-23T00:24:10.830Z,18.15
2016-08-23T00:25:10.797Z,18.16
2016-08-23T00:26:10.773Z,18.16
2016-08-23T00:27:10.756Z,18.16
2016-08-23T00:28:10.734Z,18.15
2016-08-23T00:29:10.713Z,18.13
2016-08-23T00:30:10.697Z,18.19
2016-08-23T00:31:10.673Z,18.18
2016-08-23T00:32:10.655Z,18.1
2016-08-23T00:33:10.631Z,18.2
2016-08-23T00:34:10.610Z,18.19
2016-08-23T00:35:10.587Z,18.11
2016-08-23T00:36:10.574Z,18.13
2016-08-23T00:37:10.548Z,18.1
2016-08-23T00:38:10.528Z,18.05
2016-08-23T00:39:10.510Z,18.07
2016-08-23T00:40:10.488Z,18.08
2016-08-23T00:41:10.465Z,18.1
2016-08-23T00:42:10.445Z,18
2016-08-23T00:43:10.421Z,17.95
2016-08-23T00:44:10.403Z,17.97
2016-08-23T00:45:10.384Z,18.01
2016-08-23T00:46:10.357Z,18.01
2016-08-23T00:47:10.340Z,18.04
2016-08-23T00:48:10.324Z,17.94
2016-08-23T00:49:10.295Z,17.98
2016-08-23T00:50:10.278Z,17.97
2016-08-23T00:51:10.255Z,17.97
2016-08-23T00:52:10.236Z,17.92
2016-08-23T00:53:10.217Z,17.97
2016-08-23T00:54:10.192Z,18.03
2016-08-23T00:55:10.172Z,17.87
2016-08-23T00:56:10.153Z,17.98
2016-08-23T00:57:10.133Z,17.9
2016-08-23T00:58:10.107Z,17.95
2016-08-23T00:59:10.087Z,17.9
2016-08-23T01:00:10.066Z,17.92
2016-08-23T01:01:10.046Z,17.89
2016-08-23T01:02:10.023Z,17.83
2016-08-23T01:03:10.000Z,17.79
2016-08-23T01:04:09.985Z,17.83
2016-08-23T01:05:09.960Z,17.79
2016-08-23T01:06:09.938Z,17.8
2016-08-23T01:07:09.919Z,17.92
2016-08-23T01:08:09.904Z,17.89
2016-08-23T01:09:09.875Z,17.82
2016-08-23T01:10:09.858Z,17.79
2016-08-23T01:11:09.838Z,17.97
2016-08-23T01:12:09.829Z,17.87
2016-08-23T01:13:09.794Z,17.83
2016-08-23T01:14:09.776Z,17.79
2016-08-23T01:15:09.755Z,17.82
2016-08-23T01:16:09.733Z,17.79
2016-08-23T01:17:09.710Z,17.76
2016-08-23T01:18:09.685Z,17.8
2016-08-23T01:19:09.669Z,17.82
2016-08-23T01:20:09.647Z,17.8
2016-08-23T01:21:09.626Z,17.79
2016-08-23T01:22:09.607Z,17.79
2016-08-23T01:23:09.580Z,17.8
2016-08-23T01:24:09.564Z,17.78
2016-08-23T01:25:09.541Z,17.78
2016-08-23T01:26:09.518Z,17.72
2016-08-23T01:27:09.512Z,17.78
2016-08-23T01:28:09.480Z,17.7
2016-08-23T01:29:09.455Z,17.68
2016-08-23T01:30:09.437Z,17.76
2016-08-23T01:31:09.415Z,17.76
2016-08-23T01:32:09.392Z,17.68
2016-08-23T01:33:09.379Z,17.76
2016-08-23T01:34:09.351Z,17.74
2016-08-23T01:35:09.328Z,17.74
2016-08-23T01:36:09.312Z,17.68
2016-08-23T01:37:09.297Z,17.8
2016-08-23T01:38:09.264Z,17.68
2016-08-23T01:39:09.247Z,17.79
2016-08-23T01:40:09.226Z,17.79
2016-08-23T01:41:09.215Z,17.76
2016-08-23T01:42:09.183Z,17.74
2016-08-23T01:43:09.163Z,17.7
2016-08-23T01:44:09.140Z,17.72
2016-08-23T01:45:09.119Z,17.65
2016-08-23T01:46:09.094Z,17.74
2016-08-23T01:47:09.077Z,17.72
2016-08-23T01:48:09.057Z,17.71
2016-08-23T01:49:09.031Z,17.68
2016-08-23T01:50:09.013Z,17.68
2016-08-23T01:51:08.990Z,17.68
2016-08-23T01:52:08.972Z,17.68
2016-08-23T01:53:08.950Z,17.67
2016-08-23T01:54:08.930Z,17.65
2016-08-23T01:55:08.905Z,17.65
2016-08-23T01:56:08.886Z,17.67
2016-08-23T01:57:08.876Z,17.63
2016-08-23T01:58:08.842Z,17.63
2016-08-23T01:59:08.822Z,17.63
2016-08-23T02:00:09.720Z,17.57
2016-08-23T02:01:08.788Z,17.59
2016-08-23T02:02:08.756Z,17.59
2016-08-23T02:03:08.743Z,17.68
2016-08-23T02:04:08.714Z,17.59
2016-08-23T02:05:08.694Z,17.54
2016-08-23T02:06:08.671Z,17.6
2016-08-23T02:07:08.651Z,17.6
2016-08-23T02:08:08.628Z,17.6
2016-08-23T02:09:08.608Z,17.54
2016-08-23T02:10:08.590Z,17.49
2016-08-23T02:11:08.577Z,17.59
2016-08-23T02:12:08.542Z,17.59
2016-08-23T02:13:08.523Z,17.51
2016-08-23T02:14:08.507Z,17.54
2016-08-23T02:15:08.477Z,17.6
2016-08-23T02:16:08.474Z,17.59
2016-08-23T02:17:08.439Z,17.51
2016-08-23T02:18:08.413Z,17.54
2016-08-23T02:19:09.089Z,17.52
2016-08-23T02:20:08.377Z,17.51
2016-08-23T02:21:08.363Z,17.51
2016-08-23T02:22:08.334Z,17.49
2016-08-23T02:23:08.310Z,17.48
2016-08-23T02:24:08.293Z,17.46
2016-08-23T02:25:08.270Z,17.48
2016-08-23T02:26:08.244Z,17.57
2016-08-23T02:27:08.227Z,17.56
2016-08-23T02:28:08.204Z,17.52
2016-08-23T02:29:08.187Z,17.48
2016-08-23T02:30:08.161Z,17.42
2016-08-23T02:31:08.139Z,17.54
2016-08-23T02:32:08.120Z,17.48
2016-08-23T02:33:08.099Z,17.48
2016-08-23T02:34:08.076Z,17.45
2016-08-23T02:35:08.053Z,17.44
2016-08-23T02:36:08.035Z,17.48
2016-08-23T02:37:08.011Z,17.48
2016-08-23T02:38:07.988Z,17.51
2016-08-23T02:39:07.972Z,17.49
2016-08-23T02:40:07.949Z,17.49
2016-08-23T02:41:07.933Z,17.54
2016-08-23T02:42:07.905Z,17.46
2016-08-23T02:43:07.884Z,17.48
2016-08-23T02:44:07.863Z,17.48
2016-08-23T02:45:07.842Z,17.51
2016-08-23T02:46:07.819Z,17.49
2016-08-23T02:47:07.799Z,17.46
2016-08-23T02:48:07.778Z,17.52
2016-08-23T02:49:07.757Z,17.56
2016-08-23T02:50:07.738Z,17.49
2016-08-23T02:51:07.713Z,17.49
2016-08-23T02:52:07.690Z,17.49
2016-08-23T02:53:07.675Z,17.51
2016-08-23T02:54:07.649Z,17.52
2016-08-23T02:55:07.627Z,17.48
2016-08-23T02:56:07.615Z,17.44
2016-08-23T02:57:07.585Z,17.49
2016-08-23T02:58:07.562Z,17.46
2016-08-23T02:59:07.544Z,17.44
2016-08-23T03:00:07.523Z,17.45
2016-08-23T03:01:07.501Z,17.44
2016-08-23T03:02:07.478Z,17.54
2016-08-23T03:03:07.459Z,17.48
2016-08-23T03:04:07.434Z,17.44
2016-08-23T03:05:07.416Z,17.48
2016-08-23T03:06:07.392Z,17.49
2016-08-23T03:07:07.369Z,17.39
2016-08-23T03:08:07.352Z,17.45
2016-08-23T03:09:07.339Z,17.45
2016-08-23T03:10:07.307Z,17.46
2016-08-23T03:11:07.287Z,17.45
2016-08-23T03:12:07.267Z,17.44
2016-08-23T03:13:07.242Z,17.44
2016-08-23T03:14:07.222Z,17.45
2016-08-23T03:15:07.207Z,17.42
2016-08-23T03:16:07.180Z,17.38
2016-08-23T03:17:07.163Z,17.34
2016-08-23T03:18:07.138Z,17.33
2016-08-23T03:19:07.115Z,17.29
2016-08-23T03:20:07.095Z,17.36
2016-08-23T03:21:07.073Z,17.36
2016-08-23T03:22:07.051Z,17.33
2016-08-23T03:23:07.031Z,17.3
2016-08-23T03:24:07.011Z,17.33
2016-08-23T03:25:06.989Z,17.29
2016-08-23T03:26:06.965Z,17.3
2016-08-23T03:27:06.944Z,17.24
2016-08-23T03:28:06.923Z,17.27
2016-08-23T03:29:06.899Z,17.16
2016-08-23T03:30:06.880Z,17.19
2016-08-23T03:31:06.855Z,17.22
2016-08-23T03:32:06.834Z,17.16
2016-08-23T03:33:06.819Z,17.19
2016-08-23T03:34:06.799Z,17.19
2016-08-23T03:35:06.770Z,17.16
2016-08-23T03:36:06.754Z,17.19
2016-08-23T03:37:06.738Z,17.12
2016-08-23T03:38:06.712Z,17.12
2016-08-23T03:39:06.687Z,17.11
2016-08-23T03:40:06.666Z,17.14
2016-08-23T03:41:06.646Z,17.12
2016-08-23T03:42:06.621Z,17.11
2016-08-23T03:43:06.601Z,17.09
2016-08-23T03:44:06.583Z,17.08
2016-08-23T03:45:06.560Z,17.06
2016-08-23T03:46:06.549Z,17.12
2016-08-23T03:47:06.514Z,17.11
2016-08-23T03:48:06.497Z,17.04
2016-08-23T03:49:06.478Z,17.04
2016-08-23T03:50:06.448Z,17.04
2016-08-23T03:51:06.429Z,17.08
2016-08-23T03:52:06.409Z,17.08
2016-08-23T03:53:06.384Z,17.04
2016-08-23T03:54:06.362Z,17.02
2016-08-23T03:55:06.342Z,17.02
2016-08-23T03:56:06.320Z,16.99
2016-08-23T03:57:06.295Z,17.08
2016-08-23T03:58:06.275Z,17.08
2016-08-23T03:59:06.258Z,17.02
2016-08-23T04:00:06.232Z,17.04
2016-08-23T04:01:06.210Z,17.04
2016-08-23T04:02:06.192Z,17.08
2016-08-23T04:03:06.165Z,17.02
2016-08-23T04:04:06.158Z,17.02
2016-08-23T04:05:06.121Z,16.99
2016-08-23T04:06:06.100Z,17.04
2016-08-23T04:07:06.081Z,17.08
2016-08-23T04:08:06.059Z,17.08
2016-08-23T04:09:06.035Z,17.02
2016-08-23T04:10:06.021Z,17.06
2016-08-23T04:11:06.001Z,17.04
2016-08-23T04:12:05.977Z,17.08
2016-08-23T04:13:05.951Z,17.08
2016-08-23T04:14:05.930Z,17.09
2016-08-23T04:15:05.906Z,17.11
2016-08-23T04:16:05.888Z,17.06
2016-08-23T04:17:05.864Z,17.04
2016-08-23T04:18:05.842Z,17.06
2016-08-23T04:19:05.825Z,17.06
2016-08-23T04:20:05.808Z,17.11
2016-08-23T04:21:05.777Z,17.06
2016-08-23T04:22:05.758Z,17.08
2016-08-23T04:23:05.734Z,17.04
2016-08-23T04:24:05.714Z,17.16
2016-08-23T04:25:05.689Z,17.08
2016-08-23T04:26:05.670Z,17.04
2016-08-23T04:27:05.649Z,17.14
2016-08-23T04:28:05.628Z,17.23
2016-08-23T04:29:05.612Z,17.14
2016-08-23T04:30:05.581Z,17.12
2016-08-23T04:31:05.565Z,17.19
2016-08-23T04:32:05.545Z,17.12
2016-08-23T04:33:05.520Z,17.16
2016-08-23T04:34:05.496Z,17.23
2016-08-23T04:35:05.475Z,17.2
2016-08-23T04:36:06.156Z,17.24
2016-08-23T04:37:05.432Z,17.14
2016-08-23T04:38:05.416Z,17.12
2016-08-23T04:39:05.390Z,17.16
2016-08-23T04:40:05.365Z,17.16
2016-08-23T04:41:05.345Z,17.16
2016-08-23T04:42:05.323Z,17.22
2016-08-23T04:43:05.304Z,17.19
2016-08-23T04:44:05.289Z,17.12
2016-08-23T04:45:05.259Z,17.15
2016-08-23T04:46:05.236Z,17.12
2016-08-23T04:47:05.224Z,17.24
2016-08-23T04:48:05.197Z,17.19
2016-08-23T04:49:05.172Z,17.16
2016-08-23T04:50:05.156Z,17.16
2016-08-23T04:51:05.144Z,17.27
2016-08-23T04:52:05.109Z,17.31
2016-08-23T04:53:05.101Z,17.31
2016-08-23T04:54:05.068Z,17.15
2016-08-23T04:55:05.047Z,17.27
2016-08-23T04:56:05.025Z,17.33
2016-08-23T04:57:05.005Z,17.23
2016-08-23T04:58:04.991Z,17.26
2016-08-23T04:59:04.956Z,17.29
2016-08-23T05:00:04.939Z,17.24
2016-08-23T05:01:04.915Z,17.26
2016-08-23T05:02:04.894Z,17.26
2016-08-23T05:03:04.881Z,17.36
2016-08-23T05:04:04.852Z,17.26
2016-08-23T05:05:04.831Z,17.26
2016-08-23T05:06:04.810Z,17.27
2016-08-23T05:07:04.796Z,17.33
2016-08-23T05:08:04.767Z,17.3
2016-08-23T05:09:04.747Z,17.31
2016-08-23T05:10:04.727Z,17.34
2016-08-23T05:11:04.704Z,17.33
2016-08-23T05:12:04.684Z,17.31
2016-08-23T05:13:04.664Z,17.42
2016-08-23T05:14:04.683Z,17.39
2016-08-23T05:15:04.620Z,17.33
2016-08-23T05:16:04.691Z,17.46
2016-08-23T05:17:04.826Z,17.46
2016-08-23T05:18:04.558Z,17.46
2016-08-23T05:19:04.535Z,17.48
2016-08-23T05:20:04.514Z,17.45
2016-08-23T05:21:04.489Z,17.41
2016-08-23T05:22:04.469Z,17.49
2016-08-23T05:23:04.450Z,17.56
2016-08-23T05:24:04.426Z,17.49
2016-08-23T05:25:04.412Z,17.51
2016-08-23T05:26:04.403Z,17.46
2016-08-23T05:27:04.375Z,17.59
2016-08-23T05:28:04.346Z,17.63
2016-08-23T05:29:04.325Z,17.72
2016-08-23T05:30:04.302Z,17.59
2016-08-23T05:31:04.282Z,17.64
2016-08-23T05:32:04.260Z,17.67
2016-08-23T05:33:04.238Z,17.7
2016-08-23T05:34:04.245Z,17.68
2016-08-23T05:35:04.196Z,17.72
2016-08-23T05:36:04.177Z,17.71
2016-08-23T05:37:04.175Z,17.78
2016-08-23T05:38:04.412Z,17.76
2016-08-23T05:39:04.361Z,17.71
2016-08-23T05:40:04.355Z,17.87
2016-08-23T05:41:04.074Z,17.79
2016-08-23T05:42:04.050Z,17.9
2016-08-23T05:43:04.031Z,17.76
2016-08-23T05:44:04.040Z,17.86
2016-08-23T05:45:03.989Z,17.95
2016-08-23T05:46:03.972Z,17.82
2016-08-23T05:47:03.946Z,18
2016-08-23T05:48:03.932Z,17.97
2016-08-23T05:49:03.906Z,17.97
2016-08-23T05:50:04.582Z,18
2016-08-23T05:51:03.864Z,18.03
2016-08-23T05:52:03.841Z,18.03
2016-08-23T05:53:03.830Z,18.04
2016-08-23T05:54:03.802Z,18.2
2016-08-23T05:55:03.780Z,18.16
2016-08-23T05:56:03.763Z,18.19
2016-08-23T05:57:03.743Z,18.18
2016-08-23T05:58:03.831Z,18.28
2016-08-23T05:59:03.700Z,18.22
2016-08-23T06:00:03.681Z,18.28
2016-08-23T06:01:03.658Z,18.34
2016-08-23T06:02:03.645Z,18.35
2016-08-23T06:03:03.618Z,18.38
2016-08-23T06:04:03.599Z,18.45
2016-08-23T06:05:03.579Z,18.41
2016-08-23T06:06:03.560Z,18.5
2016-08-23T06:07:03.539Z,18.5
2016-08-23T06:08:03.543Z,18.59
2016-08-23T06:09:03.500Z,18.47
2016-08-23T06:10:03.477Z,18.56
2016-08-23T06:11:03.458Z,18.53
2016-08-23T06:12:03.541Z,18.7
2016-08-23T06:13:03.655Z,18.66
2016-08-23T06:14:03.397Z,18.6
2016-08-23T06:15:03.374Z,18.62
2016-08-23T06:16:03.357Z,18.7
2016-08-23T06:17:03.336Z,18.77
2016-08-23T06:18:04.018Z,18.74
2016-08-23T06:19:03.327Z,18.75
2016-08-23T06:20:03.283Z,18.84
2016-08-23T06:21:03.255Z,18.92
2016-08-23T06:22:03.246Z,18.92
2016-08-23T06:23:03.452Z,19
2016-08-23T06:24:03.199Z,19.02
2016-08-23T06:25:03.180Z,19.12
2016-08-23T06:26:03.279Z,19.19
2016-08-23T06:27:03.139Z,19.24
2016-08-23T06:28:03.559Z,19.31
2016-08-23T06:29:03.810Z,19.37
2016-08-23T06:30:03.136Z,19.45
2016-08-23T06:31:03.146Z,19.56
2016-08-23T06:32:03.272Z,19.64
2016-08-23T06:33:03.035Z,19.63
2016-08-23T06:34:03.324Z,19.77
2016-08-23T06:35:02.996Z,19.82
2016-08-23T06:36:02.986Z,19.99
2016-08-23T06:37:02.965Z,20.03
2016-08-23T06:38:03.023Z,20.14
2016-08-23T06:39:02.935Z,20.25
2016-08-23T06:40:03.663Z,20.37
2016-08-23T06:41:02.900Z,20.34
2016-08-23T06:42:03.577Z,20.56
2016-08-23T06:43:02.870Z,20.65
2016-08-23T06:44:02.906Z,20.7
2016-08-23T06:45:03.034Z,20.81
2016-08-23T06:46:03.840Z,20.87
2016-08-23T06:47:02.848Z,21.07
2016-08-23T06:48:02.791Z,21.11
2016-08-23T06:49:02.778Z,21.24
2016-08-23T06:50:02.761Z,21.29
2016-08-23T06:51:02.815Z,21.35
2016-08-23T06:52:02.742Z,21.37
2016-08-23T06:53:02.821Z,21.55
2016-08-23T06:54:02.742Z,21.46
2016-08-23T06:55:02.699Z,21.64
2016-08-23T06:56:02.784Z,21.69
2016-08-23T06:57:03.930Z,21.61
2016-08-23T06:58:02.642Z,21.77
2016-08-23T06:59:02.633Z,21.69
2016-08-23T07:00:02.609Z,21.76
2016-08-23T07:01:02.622Z,21.8
2016-08-23T07:02:03.242Z,21.89
2016-08-23T07:03:02.567Z,21.92
2016-08-23T07:04:02.629Z,21.98
2016-08-23T07:05:04.031Z,22.11
2016-08-23T07:06:02.593Z,22.17
2016-08-23T07:07:02.900Z,22.22
2016-08-23T07:08:03.349Z,22.25
2016-08-23T07:09:04.296Z,22.26
2016-08-23T07:10:02.732Z,22.39
2016-08-23T07:11:02.512Z,22.41
2016-08-23T07:12:02.728Z,22.45
2016-08-23T07:13:03.482Z,22.59
2016-08-23T07:14:04.551Z,22.62
2016-08-23T07:15:03.493Z,22.76
2016-08-23T07:16:03.451Z,22.84
2016-08-23T07:17:04.342Z,23
2016-08-23T07:18:03.261Z,22.94
2016-08-23T07:19:03.749Z,23.12
2016-08-23T07:20:03.380Z,23.24
2016-08-23T07:21:05.221Z,23.13
2016-08-23T07:22:03.223Z,23.23
2016-08-23T07:23:02.470Z,23.32
2016-08-23T07:24:03.638Z,23.31
2016-08-23T07:25:04.844Z,23.36
2016-08-23T07:26:03.163Z,23.4
2016-08-23T07:27:02.286Z,23.39
2016-08-23T07:28:03.169Z,23.43
2016-08-23T07:29:03.184Z,23.48
2016-08-23T07:30:02.904Z,23.5
2016-08-23T07:31:03.799Z,23.59
2016-08-23T07:32:03.433Z,23.73
2016-08-23T07:33:03.354Z,23.66
2016-08-23T07:34:03.537Z,23.8
2016-08-23T07:35:04.540Z,23.84
2016-08-23T07:36:03.407Z,24.02
2016-08-23T07:37:03.091Z,24.06
2016-08-23T07:38:03.286Z,24.11
2016-08-23T07:39:03.311Z,24.26
2016-08-23T07:40:04.315Z,24.29
2016-08-23T07:41:03.477Z,24.26
2016-08-23T07:42:02.893Z,24.39
2016-08-23T07:43:03.199Z,24.32
2016-08-23T07:44:03.748Z,24.43
2016-08-23T07:45:02.128Z,24.55
2016-08-23T07:46:02.018Z,24.66
2016-08-23T07:47:02.248Z,24.65
2016-08-23T07:48:02.796Z,24.66
2016-08-23T07:49:03.039Z,24.69
2016-08-23T07:50:03.430Z,24.8
2016-08-23T07:51:03.167Z,24.89
2016-08-23T07:52:01.924Z,25.1
2016-08-23T07:53:02.676Z,25.18
2016-08-23T07:54:02.009Z,25.21
2016-08-23T07:55:02.447Z,25.23
2016-08-23T07:56:02.165Z,25.28
2016-08-23T07:57:01.879Z,25.31
2016-08-23T07:58:01.895Z,25.35
2016-08-23T07:59:03.015Z,25.33
2016-08-23T08:00:03.346Z,25.41
2016-08-23T08:01:04.012Z,25.46
2016-08-23T08:02:02.244Z,25.46
2016-08-23T08:03:02.440Z,25.47
2016-08-23T08:04:02.962Z,25.47
2016-08-23T08:05:02.471Z,25.47
2016-08-23T08:06:03.031Z,25.47
2016-08-23T08:07:02.643Z,25.48
2016-08-23T08:08:03.645Z,25.5
2016-08-23T08:09:03.013Z,25.47
2016-08-23T08:10:02.043Z,25.48
2016-08-23T08:11:02.441Z,25.44
2016-08-23T08:12:02.595Z,25.51
2016-08-23T08:13:01.979Z,25.4
2016-08-23T08:14:02.285Z,25.46
2016-08-23T08:15:02.118Z,25.58
2016-08-23T08:16:02.388Z,25.51
2016-08-23T08:17:01.668Z,25.48
2016-08-23T08:18:01.663Z,25.5
2016-08-23T08:19:01.676Z,25.51
2016-08-23T08:20:01.636Z,25.55
2016-08-23T08:21:01.878Z,25.55
2016-08-23T08:22:02.374Z,25.54
2016-08-23T08:23:01.634Z,25.58
2016-08-23T08:24:01.943Z,25.48
2016-08-23T08:25:01.588Z,25.46
2016-08-23T08:26:01.945Z,25.46
2016-08-23T08:27:01.721Z,25.38
2016-08-23T08:28:01.594Z,25.35
2016-08-23T08:29:01.714Z,25.38
2016-08-23T08:30:01.556Z,25.28
2016-08-23T08:31:02.226Z,25.29
2016-08-23T08:32:01.502Z,25.25
2016-08-23T08:33:01.939Z,25.28
2016-08-23T08:34:01.477Z,25.14
2016-08-23T08:35:02.877Z,25.25
2016-08-23T08:36:02.738Z,25.23
2016-08-23T08:37:02.090Z,25.1
2016-08-23T08:38:01.817Z,25.17
2016-08-23T08:39:01.794Z,25.13
2016-08-23T08:40:01.636Z,25.23
2016-08-23T08:41:01.495Z,25.22
2016-08-23T08:42:01.502Z,25.28
2016-08-23T08:43:01.759Z,25.4
2016-08-23T08:44:01.558Z,25.46
2016-08-23T08:45:01.733Z,25.5
2016-08-23T08:46:02.257Z,25.59
2016-08-23T08:47:02.093Z,25.69
2016-08-23T08:48:01.784Z,25.65
2016-08-23T08:49:01.761Z,25.66
2016-08-23T08:50:02.773Z,25.73
2016-08-23T08:51:01.454Z,25.85
2016-08-23T08:52:01.285Z,25.9
2016-08-23T08:53:02.643Z,25.84
2016-08-23T08:54:02.823Z,25.91
2016-08-23T08:55:01.964Z,25.9
2016-08-23T08:56:01.199Z,25.99
2016-08-23T08:57:02.150Z,25.99
2016-08-23T08:58:01.218Z,26.02
2016-08-23T08:59:02.161Z,26.09
2016-08-23T09:00:02.473Z,26.03
2016-08-23T09:01:02.200Z,25.93
2016-08-23T09:02:02.205Z,26.09
2016-08-23T09:03:01.127Z,26.1
2016-08-23T09:04:01.259Z,26.13
2016-08-23T09:05:01.633Z,26.18
2016-08-23T09:06:01.088Z,26.09
2016-08-23T09:07:02.050Z,26.05
2016-08-23T09:08:01.130Z,25.95
2016-08-23T09:09:02.389Z,25.96
2016-08-23T09:10:01.463Z,25.99
2016-08-23T09:11:01.894Z,26
2016-08-23T09:12:01.137Z,25.93
2016-08-23T09:13:01.712Z,25.98
2016-08-23T09:14:00.991Z,25.85
2016-08-23T09:15:00.988Z,25.87
2016-08-23T09:16:01.313Z,25.87
2016-08-23T09:17:00.959Z,25.88
2016-08-23T09:18:00.938Z,25.85
2016-08-23T09:19:01.365Z,25.91
2016-08-23T09:20:00.915Z,25.83
2016-08-23T09:21:00.899Z,25.8
2016-08-23T09:22:01.339Z,25.75
2016-08-23T09:23:01.140Z,25.85
2016-08-23T09:24:00.881Z,25.83
2016-08-23T09:25:00.954Z,25.75
2016-08-23T09:26:01.107Z,25.72
2016-08-23T09:27:00.960Z,25.85
2016-08-23T09:28:01.341Z,25.88
2016-08-23T09:29:02.844Z,25.81
2016-08-23T09:30:01.495Z,25.75
2016-08-23T09:31:00.762Z,25.84
2016-08-23T09:32:00.752Z,25.83
2016-08-23T09:33:01.706Z,25.77
2016-08-23T09:34:01.965Z,25.77
2016-08-23T09:35:01.927Z,25.77
2016-08-23T09:36:02.140Z,25.72
2016-08-23T09:37:01.741Z,25.75
2016-08-23T09:38:01.744Z,25.78
2016-08-23T09:39:01.167Z,25.77
2016-08-23T09:40:01.098Z,25.73
2016-08-23T09:41:00.691Z,25.78
2016-08-23T09:42:01.389Z,25.73
2016-08-23T09:43:01.230Z,25.77
2016-08-23T09:44:00.579Z,25.77
2016-08-23T09:45:00.566Z,25.78
2016-08-23T09:46:01.120Z,25.72
2016-08-23T09:47:00.994Z,25.75
2016-08-23T09:48:01.762Z,25.83
2016-08-23T09:49:00.707Z,25.78
2016-08-23T09:50:00.500Z,25.7
2016-08-23T09:51:00.576Z,25.8
2016-08-23T09:52:01.337Z,25.68
2016-08-23T09:53:01.239Z,25.72
2016-08-23T09:54:00.458Z,25.72
2016-08-23T09:55:00.608Z,25.75
2016-08-23T09:56:00.425Z,25.73
2016-08-23T09:57:00.493Z,25.75
2016-08-23T09:58:00.383Z,25.8
2016-08-23T09:59:01.329Z,25.77
2016-08-23T10:00:00.861Z,25.77
2016-08-23T10:01:00.342Z,25.83
2016-08-23T10:02:00.638Z,25.83
2016-08-23T10:03:01.004Z,25.9
2016-08-23T10:04:01.146Z,25.93
2016-08-23T10:05:02.396Z,25.95
2016-08-23T10:06:00.316Z,25.93
2016-08-23T10:07:00.254Z,25.87
2016-08-23T10:08:00.320Z,25.83
2016-08-23T10:09:01.282Z,25.88
2016-08-23T10:10:01.358Z,25.84
2016-08-23T10:11:00.740Z,25.84
2016-08-23T10:12:00.871Z,25.95
2016-08-23T10:13:00.174Z,26.02
2016-08-23T10:14:01.097Z,25.98
2016-08-23T10:15:00.136Z,25.99
2016-08-23T10:16:00.613Z,25.96
2016-08-23T10:17:02.340Z,26.02
2016-08-23T10:18:00.209Z,26.06
2016-08-23T10:19:01.222Z,26.07
2016-08-23T10:20:00.071Z,26.09
2016-08-23T10:21:00.066Z,26.22
2016-08-23T10:22:00.206Z,26.22
2016-08-23T10:23:00.038Z,26.31
2016-08-23T10:24:00.351Z,26.26
2016-08-23T10:25:00.010Z,26.36
2016-08-23T10:26:01.084Z,26.36
2016-08-23T10:27:01.176Z,26.4
2016-08-23T10:28:00.384Z,26.51
2016-08-23T10:29:01.125Z,26.45
2016-08-23T10:30:00.482Z,26.55
2016-08-23T10:31:00.964Z,26.56
2016-08-23T10:32:00.037Z,26.56
2016-08-23T10:32:59.886Z,26.65
2016-08-23T10:34:00.277Z,26.6
2016-08-23T10:35:01.214Z,26.58
2016-08-23T10:36:01.099Z,26.62
2016-08-23T10:37:00.752Z,26.75
2016-08-23T10:37:59.957Z,26.75
2016-08-23T10:39:00.975Z,26.7
2016-08-23T10:40:00.216Z,26.73
2016-08-23T10:40:59.868Z,26.73
2016-08-23T10:41:59.801Z,26.73
2016-08-23T10:42:59.748Z,26.74
2016-08-23T10:43:59.736Z,26.73
2016-08-23T10:44:59.725Z,26.73
2016-08-23T10:45:59.707Z,26.71
2016-08-23T10:46:59.735Z,26.78
2016-08-23T10:47:59.766Z,26.84
2016-08-23T10:49:00.123Z,26.73
2016-08-23T10:49:59.682Z,26.71
2016-08-23T10:51:00.461Z,26.78
2016-08-23T10:51:59.692Z,26.74
2016-08-23T10:52:59.610Z,26.74
2016-08-23T10:53:59.595Z,26.89
2016-08-23T10:55:00.664Z,26.92
2016-08-23T10:56:00.843Z,26.96
2016-08-23T10:56:59.606Z,26.97
2016-08-23T10:57:59.536Z,27.03
2016-08-23T10:59:00.769Z,27.1
2016-08-23T10:59:59.521Z,27.11
2016-08-23T11:00:59.546Z,27.11
2016-08-23T11:02:00.197Z,27.15
2016-08-23T11:02:59.721Z,27.17
2016-08-23T11:03:59.463Z,27.18
2016-08-23T11:04:59.444Z,27.14
2016-08-23T11:05:59.564Z,27.07
2016-08-23T11:06:59.461Z,27.14
2016-08-23T11:07:59.838Z,27.15
2016-08-23T11:08:59.393Z,27.17
2016-08-23T11:09:59.381Z,27.2
2016-08-23T11:10:59.445Z,27.22
2016-08-23T11:11:59.350Z,27.22
2016-08-23T11:12:59.851Z,27.12
2016-08-23T11:13:59.746Z,27.17
2016-08-23T11:14:59.326Z,27.22
2016-08-23T11:15:59.297Z,27.22
2016-08-23T11:16:59.280Z,27.17
2016-08-23T11:17:59.273Z,27.32
2016-08-23T11:18:59.556Z,27.32
2016-08-23T11:20:00.021Z,27.35
2016-08-23T11:20:59.405Z,27.32
2016-08-23T11:21:59.314Z,27.32
2016-08-23T11:22:59.811Z,27.4
2016-08-23T11:23:59.193Z,27.37
2016-08-23T11:24:59.178Z,27.49
2016-08-23T11:25:59.545Z,27.54
2016-08-23T11:26:59.152Z,27.67
2016-08-23T11:27:59.136Z,27.71
2016-08-23T11:28:59.215Z,27.8
2016-08-23T11:29:59.174Z,27.77
2016-08-23T11:30:59.093Z,27.86
2016-08-23T11:31:59.318Z,27.89
2016-08-23T11:32:59.116Z,27.92
2016-08-23T11:33:59.058Z,27.92
2016-08-23T11:34:59.353Z,27.86
2016-08-23T11:35:59.035Z,27.9
2016-08-23T11:36:59.016Z,27.96
2016-08-23T11:38:00.192Z,27.85
2016-08-23T11:38:59.961Z,27.87
2016-08-23T11:39:59.013Z,27.92
2016-08-23T11:40:59.355Z,27.96
2016-08-23T11:41:58.959Z,28.08
2016-08-23T11:42:59.517Z,28.11
2016-08-23T11:43:59.117Z,28.14
2016-08-23T11:44:59.203Z,28.27
2016-08-23T11:45:58.925Z,28.2
2016-08-23T11:46:59.780Z,28.19
2016-08-23T11:47:59.053Z,28.22
2016-08-23T11:48:59.334Z,28.08
2016-08-23T11:49:59.251Z,28.11
2016-08-23T11:50:59.121Z,28.1
2016-08-23T11:51:58.823Z,28.1
2016-08-23T11:52:58.828Z,28.15
2016-08-23T11:53:58.802Z,28.14
2016-08-23T11:55:00.174Z,28.15
2016-08-23T11:56:00.100Z,28.26
2016-08-23T11:56:58.796Z,28.23
2016-08-23T11:57:59.576Z,28.35
2016-08-23T11:58:59.029Z,28.35
2016-08-23T11:59:58.724Z,28.33
2016-08-23T12:00:58.728Z,28.42
2016-08-23T12:01:58.985Z,28.44
2016-08-23T12:02:58.693Z,28.37
2016-08-23T12:03:58.824Z,28.38
2016-08-23T12:04:58.821Z,28.3
2016-08-23T12:05:58.651Z,28.19
2016-08-23T12:06:58.635Z,28.35
2016-08-23T12:07:58.631Z,28.33
2016-08-23T12:08:58.732Z,28.2
2016-08-23T12:09:58.895Z,28.33
2016-08-23T12:10:58.891Z,28.33
2016-08-23T12:11:58.647Z,28.37
2016-08-23T12:12:58.766Z,28.35
2016-08-23T12:13:58.710Z,28.38
2016-08-23T12:14:59.459Z,28.39
2016-08-23T12:15:58.607Z,28.38
2016-08-23T12:16:59.640Z,28.35
2016-08-23T12:17:59.817Z,28.48
2016-08-23T12:18:58.511Z,28.45
2016-08-23T12:19:58.471Z,28.42
2016-08-23T12:20:58.468Z,28.51
2016-08-23T12:21:58.924Z,28.49
2016-08-23T12:22:58.435Z,28.42
2016-08-23T12:23:59.055Z,28.6
2016-08-23T12:24:58.869Z,28.45
2016-08-23T12:25:58.737Z,28.57
2016-08-23T12:26:58.563Z,28.62
2016-08-23T12:27:58.437Z,28.7
2016-08-23T12:28:58.357Z,28.81
2016-08-23T12:29:58.349Z,28.85
2016-08-23T12:30:58.767Z,28.86
2016-08-23T12:31:59.047Z,28.96
2016-08-23T12:32:58.650Z,28.93
2016-08-23T12:33:58.993Z,29.04
2016-08-23T12:34:58.514Z,28.97
2016-08-23T12:36:00.122Z,29.04
2016-08-23T12:36:58.910Z,29.02
2016-08-23T12:37:58.627Z,28.98
2016-08-23T12:38:59.308Z,29.12
2016-08-23T12:39:58.433Z,29.07
2016-08-23T12:40:58.753Z,29.02
2016-08-23T12:41:58.580Z,29.12
2016-08-23T12:42:58.609Z,29.07
2016-08-23T12:43:58.913Z,29.08
2016-08-23T12:44:59.729Z,29.1
2016-08-23T12:45:59.069Z,29.12
2016-08-23T12:46:58.725Z,29.19
2016-08-23T12:47:58.932Z,29.19
2016-08-23T12:48:58.881Z,29.31
2016-08-23T12:49:58.118Z,29.41
2016-08-23T12:50:58.209Z,29.51
2016-08-23T12:51:58.703Z,29.61
2016-08-23T12:52:58.221Z,29.61
2016-08-23T12:53:59.307Z,29.6
2016-08-23T12:54:58.068Z,29.51